createdAt,value
2018-06-20T00:02:05.426Z,39.03
2018-06-20T00:05:09.436Z,41.77
2018-06-20T00:08:13.174Z,34.30
2018-06-20T00:11:16.820Z,41.67
2018-06-20T00:14:20.477Z,38.90
2018-06-20T00:17:24.136Z,40.77
2018-06-20T00:20:27.781Z,41.83
2018-06-20T00:23:31.356Z,39.17
2018-06-20T00:26:35.052Z,37.80
2018-06-20T00:29:38.762Z,35.93
2018-06-20T00:32:42.353Z,36.20
2018-06-20T00:35:45.981Z,44.10
2018-06-20T00:38:49.665Z,38.03
2018-06-20T00:41:53.331Z,35.97
2018-06-20T00:44:56.901Z,37.70
2018-06-20T00:48:00.620Z,38.80
2018-06-20T00:51:04.227Z,37.97
2018-06-20T00:54:07.847Z,40.43
2018-06-20T00:57:11.518Z,37.13
2018-06-20T01:00:15.202Z,42.50
2018-06-20T01:03:18.915Z,41.17
2018-06-20T01:06:22.917Z,36.87
2018-06-20T01:09:26.615Z,38.07
2018-06-20T01:12:30.458Z,37.77
2018-06-20T01:15:34.168Z,35.00
2018-06-20T01:18:37.736Z,35.20
2018-06-20T01:21:41.501Z,37.13
2018-06-20T01:24:45.263Z,40.30
2018-06-20T01:27:48.868Z,33.60
2018-06-20T01:30:53.278Z,37.87
2018-06-20T01:33:57.046Z,36.37
2018-06-20T01:37:00.728Z,32.30
2018-06-20T01:40:04.468Z,35.53
2018-06-20T01:43:08.273Z,37.50
2018-06-20T01:46:11.875Z,33.07
2018-06-20T01:49:15.454Z,40.70
2018-06-20T01:52:19.162Z,36.60
2018-06-20T01:55:22.838Z,40.37
2018-06-20T01:58:26.527Z,43.53
2018-06-20T02:01:30.113Z,44.23
2018-06-20T02:04:33.723Z,42.20
2018-06-20T02:07:37.437Z,46.07
2018-06-20T02:10:41.173Z,39.10
2018-06-20T02:13:44.788Z,43.10
2018-06-20T02:16:48.493Z,38.93
2018-06-20T02:19:52.142Z,41.10
2018-06-20T02:22:55.786Z,36.90
2018-06-20T02:25:59.606Z,40.87
2018-06-20T02:29:03.206Z,38.07
2018-06-20T02:32:06.853Z,39.70
2018-06-20T02:35:10.529Z,45.33
2018-06-20T02:38:14.224Z,40.50
2018-06-20T02:41:17.845Z,40.23
2018-06-20T02:44:21.811Z,38.57
2018-06-20T02:47:30.427Z,38.77
2018-06-20T02:50:34.133Z,38.50
2018-06-20T02:53:37.754Z,38.80
2018-06-20T02:56:41.317Z,36.57
2018-06-20T02:59:45.034Z,40.90
2018-06-20T03:02:48.722Z,44.10
2018-06-20T03:05:52.468Z,40.03
2018-06-20T03:09:02.089Z,44.87
2018-06-20T03:12:05.805Z,39.97
2018-06-20T03:15:09.469Z,42.73
2018-06-20T03:18:13.119Z,41.10
2018-06-20T03:21:16.802Z,44.97
2018-06-20T03:24:20.589Z,42.67
2018-06-20T03:27:24.216Z,38.20
2018-06-20T03:30:27.854Z,38.80
2018-06-20T03:33:31.463Z,42.23
2018-06-20T03:36:35.260Z,38.67
2018-06-20T03:39:38.918Z,40.67
2018-06-20T03:42:42.490Z,37.90
2018-06-20T03:45:46.188Z,40.97
2018-06-20T03:48:49.875Z,37.67
2018-06-20T03:51:53.463Z,35.20
2018-06-20T03:54:57.258Z,35.53
2018-06-20T03:58:00.980Z,37.43
2018-06-20T04:01:04.664Z,48.03
2018-06-20T04:04:08.344Z,40.53
2018-06-20T04:07:12.028Z,40.87
2018-06-20T04:10:15.630Z,37.13
2018-06-20T04:13:19.374Z,41.13
2018-06-20T04:16:23.108Z,41.47
2018-06-20T04:19:26.964Z,40.50
2018-06-20T04:22:30.824Z,39.67
2018-06-20T04:25:34.570Z,37.17
2018-06-20T04:28:38.585Z,38.53
2018-06-20T04:31:42.164Z,36.10
2018-06-20T04:34:45.928Z,37.40
2018-06-20T04:37:49.688Z,30.17
2018-06-20T04:40:53.328Z,31.50
2018-06-20T04:43:57.000Z,34.63
2018-06-20T04:47:00.714Z,35.90
2018-06-20T04:50:04.545Z,34.13
2018-06-20T04:53:08.330Z,31.20
2018-06-20T04:56:11.915Z,33.40
2018-06-20T04:59:15.548Z,34.07
2018-06-20T05:02:19.218Z,35.87
2018-06-20T05:05:22.960Z,34.73
2018-06-20T05:08:26.599Z,41.13
2018-06-20T05:11:30.734Z,36.03
2018-06-20T05:14:34.383Z,39.90
2018-06-20T05:17:38.076Z,36.57
2018-06-20T05:20:41.805Z,33.43
2018-06-20T05:23:45.600Z,38.80
2018-06-20T05:26:49.249Z,39.37
2018-06-20T05:29:55.815Z,38.30
2018-06-20T05:33:00.344Z,36.97
2018-06-20T05:36:04.050Z,36.97
2018-06-20T05:39:09.543Z,39.77
2018-06-20T05:42:13.214Z,40.93
2018-06-20T05:45:16.918Z,39.40
2018-06-20T05:48:20.601Z,38.67
2018-06-20T05:51:24.189Z,41.10
2018-06-20T05:54:27.786Z,39.30
2018-06-20T05:57:31.442Z,38.30
2018-06-20T06:00:35.079Z,36.17
2018-06-20T06:03:38.656Z,35.50
2018-06-20T06:06:42.390Z,43.33
2018-06-20T06:09:46.006Z,43.03
2018-06-20T06:12:49.621Z,39.40
2018-06-20T06:15:53.336Z,40.43
2018-06-20T06:18:57.198Z,39.90
2018-06-20T06:22:00.725Z,40.07
2018-06-20T06:25:04.571Z,44.37
2018-06-20T06:28:08.100Z,41.33
2018-06-20T06:31:11.764Z,42.37
2018-06-20T06:34:15.361Z,41.27
2018-06-20T06:37:18.979Z,36.63
2018-06-20T06:40:22.567Z,40.73
2018-06-20T06:43:26.195Z,42.20
2018-06-20T06:46:29.912Z,39.03
2018-06-20T06:49:33.527Z,42.97
2018-06-20T06:52:37.211Z,42.90
2018-06-20T06:55:40.892Z,36.80
2018-06-20T06:58:44.490Z,43.17
2018-06-20T07:01:48.272Z,41.87
2018-06-20T07:04:51.885Z,43.27
2018-06-20T07:07:55.601Z,38.80
2018-06-20T07:10:59.256Z,42.40
2018-06-20T07:14:02.892Z,40.57
2018-06-20T07:17:06.650Z,40.97
2018-06-20T07:20:10.605Z,47.03
2018-06-20T07:23:14.191Z,41.17
2018-06-20T07:26:17.986Z,44.00
2018-06-20T07:29:21.748Z,44.13
2018-06-20T07:32:25.463Z,41.37
2018-06-20T07:35:29.304Z,40.77
2018-06-20T07:38:32.801Z,40.30
2018-06-20T07:41:36.881Z,37.57
2018-06-20T07:44:40.517Z,44.43
2018-06-20T07:47:44.170Z,34.93
2018-06-20T07:50:47.909Z,40.67
2018-06-20T07:53:51.546Z,39.03
2018-06-20T07:56:55.255Z,47.27
2018-06-20T08:00:04.020Z,36.40
2018-06-20T08:03:14.892Z,38.57
2018-06-20T08:06:23.712Z,33.47
2018-06-20T08:09:32.504Z,27.10
2018-06-20T08:12:41.327Z,22.40
2018-06-20T08:15:50.256Z,20.30
2018-06-20T08:19:58.912Z,25.40
2018-06-20T08:23:02.568Z,21.07
2018-06-20T08:26:06.511Z,21.43
2018-06-20T08:29:10.082Z,23.57
2018-06-20T08:32:13.942Z,18.00
2018-06-20T08:35:17.631Z,14.90
2018-06-20T08:38:21.234Z,16.07
2018-06-20T08:41:24.932Z,17.67
2018-06-20T08:44:28.576Z,19.70
2018-06-20T08:47:32.233Z,15.83
2018-06-20T08:50:35.842Z,15.63
2018-06-20T08:53:39.602Z,16.10
2018-06-20T08:56:43.398Z,13.63
2018-06-20T08:59:47.213Z,14.50
2018-06-20T09:02:50.883Z,14.80
2018-06-20T09:05:59.788Z,16.40
2018-06-20T09:09:08.755Z,14.73
2018-06-20T09:12:17.650Z,12.43
2018-06-20T09:15:26.796Z,15.43
2018-06-20T09:18:35.776Z,13.90
2018-06-20T09:21:39.413Z,13.50
2018-06-20T09:24:43.229Z,11.37
2018-06-20T09:27:46.831Z,10.47
2018-06-20T09:30:50.466Z,10.23
2018-06-20T09:33:54.097Z,8.80
2018-06-20T09:36:57.811Z,7.70
2018-06-20T09:40:01.539Z,7.50
2018-06-20T09:43:05.289Z,6.53
2018-06-20T09:46:08.892Z,9.90
2018-06-20T09:49:12.612Z,7.50
2018-06-20T09:52:16.244Z,6.63
2018-06-20T09:55:19.826Z,6.87
2018-06-20T09:58:23.557Z,7.60
2018-06-20T10:01:32.403Z,7.67
2018-06-20T10:04:41.200Z,9.60
2018-06-20T10:07:50.207Z,10.07
2018-06-20T10:10:59.061Z,9.00
2018-06-20T10:14:03.100Z,8.87
2018-06-20T10:17:06.727Z,9.07
2018-06-20T10:20:41.133Z,9.53
2018-06-20T10:23:44.924Z,9.50
2018-06-20T10:26:48.551Z,9.50
2018-06-20T10:29:52.198Z,10.80
2018-06-20T10:32:55.792Z,9.87
2018-06-20T10:35:59.570Z,11.10
2018-06-20T10:39:03.462Z,10.90
2018-06-20T10:42:07.153Z,9.80
2018-06-20T10:45:15.996Z,9.97
2018-06-20T10:48:19.688Z,10.90
2018-06-20T10:51:23.299Z,11.87
2018-06-20T10:54:26.899Z,11.83
2018-06-20T10:57:35.737Z,11.03
2018-06-20T11:00:44.588Z,11.07
2018-06-20T11:03:53.376Z,11.03
2018-06-20T11:07:02.350Z,10.07
2018-06-20T11:10:11.104Z,15.37
2018-06-20T11:13:21.024Z,12.63
2018-06-20T11:16:24.710Z,14.87
2018-06-20T11:19:28.525Z,15.40
2018-06-20T11:22:32.115Z,12.30
2018-06-20T11:25:35.878Z,10.63
2018-06-20T11:28:39.648Z,10.20
2018-06-20T11:31:43.459Z,12.50
2018-06-20T11:34:47.105Z,12.77
2018-06-20T11:37:51.277Z,13.70
2018-06-20T11:40:54.883Z,12.13
2018-06-20T11:43:58.519Z,13.90
2018-06-20T11:47:07.429Z,14.13
2018-06-20T11:50:12.473Z,17.03
2018-06-20T11:53:16.109Z,11.20
2018-06-20T11:56:19.832Z,13.00
2018-06-20T11:59:28.882Z,14.37
2018-06-20T12:02:37.908Z,14.50
2018-06-20T12:05:46.850Z,12.17
2018-06-20T12:08:55.773Z,12.80
2018-06-20T12:12:04.703Z,11.07
2018-06-20T12:15:13.729Z,13.63
2018-06-20T12:18:22.715Z,12.13
2018-06-20T12:21:31.620Z,12.30
2018-06-20T12:24:40.568Z,12.30
2018-06-20T12:27:49.539Z,15.83
2018-06-20T12:30:58.508Z,11.70
2018-06-20T12:34:07.382Z,13.77
2018-06-20T12:37:16.184Z,18.90
2018-06-20T12:40:24.715Z,15.70
2018-06-20T12:43:33.743Z,12.93
2018-06-20T12:46:48.771Z,13.10
2018-06-20T12:49:56.990Z,14.43
2018-06-20T12:53:00.625Z,15.00
2018-06-20T12:56:04.264Z,13.83
2018-06-20T12:59:07.967Z,15.80
2018-06-20T13:02:11.571Z,14.33
2018-06-20T13:05:15.541Z,14.37
2018-06-20T13:08:19.296Z,15.73
2018-06-20T13:11:22.997Z,14.27
2018-06-20T13:14:26.645Z,13.37
2018-06-20T13:17:30.560Z,15.53
2018-06-20T13:20:34.157Z,13.43
2018-06-20T13:23:37.860Z,13.90
2018-06-20T13:26:41.599Z,12.47
2018-06-20T13:29:45.349Z,12.23
2018-06-20T13:32:54.316Z,13.03
2018-06-20T13:36:03.080Z,14.00
2018-06-20T13:39:13.189Z,14.03
2018-06-20T13:42:21.932Z,12.60
2018-06-20T13:45:30.779Z,11.60
2018-06-20T13:48:35.541Z,13.00
2018-06-20T13:51:39.126Z,11.27
2018-06-20T13:54:42.704Z,11.97
2018-06-20T13:57:46.314Z,12.03
2018-06-20T14:00:50.060Z,11.13
2018-06-20T14:03:53.676Z,12.27
2018-06-20T14:06:57.345Z,13.73
2018-06-20T14:10:00.957Z,10.60
2018-06-20T14:13:04.756Z,10.20
2018-06-20T14:16:08.400Z,11.27
2018-06-20T14:19:12.079Z,11.47
2018-06-20T14:22:15.780Z,10.00
2018-06-20T14:25:19.611Z,10.30
2018-06-20T14:28:23.290Z,11.03
2018-06-20T14:31:32.150Z,11.70
2018-06-20T14:34:40.984Z,12.87
2018-06-20T14:37:49.927Z,12.60
2018-06-20T14:40:58.747Z,12.13
2018-06-20T14:44:05.293Z,9.60
2018-06-20T14:47:08.948Z,9.27
2018-06-20T14:50:12.743Z,8.93
2018-06-20T14:53:16.356Z,9.70
2018-06-20T14:56:20.092Z,9.40
2018-06-20T14:59:23.786Z,9.03
2018-06-20T15:02:27.413Z,10.03
2018-06-20T15:05:31.162Z,8.43
2018-06-20T15:08:35.062Z,7.90
2018-06-20T15:11:39.152Z,7.20
2018-06-20T15:14:42.837Z,7.50
2018-06-20T15:17:46.515Z,7.27
2018-06-20T15:20:50.225Z,6.93
2018-06-20T15:23:54.062Z,10.57
2018-06-20T15:27:02.837Z,7.83
2018-06-20T15:30:12.730Z,6.97
2018-06-20T15:33:21.627Z,6.30
2018-06-20T15:36:30.440Z,6.80
2018-06-20T15:39:34.018Z,6.60
2018-06-20T15:42:37.828Z,6.17
2018-06-20T15:45:41.533Z,6.50
2018-06-20T15:48:45.786Z,6.83
2018-06-20T15:51:49.391Z,6.40
2018-06-20T15:54:53.045Z,6.90
2018-06-20T15:57:56.680Z,6.50
2018-06-20T16:01:00.345Z,6.60
2018-06-20T16:04:04.147Z,6.20
2018-06-20T16:07:07.859Z,6.77
2018-06-20T16:10:15.814Z,6.40
2018-06-20T16:13:19.502Z,6.40
2018-06-20T16:16:23.102Z,6.67
2018-06-20T16:19:31.942Z,9.20
2018-06-20T16:22:40.757Z,6.83
2018-06-20T16:25:49.796Z,6.83
2018-06-20T16:28:58.591Z,6.87
2018-06-20T16:32:02.256Z,7.13
2018-06-20T16:35:05.965Z,7.23
2018-06-20T16:38:09.625Z,7.33
2018-06-20T16:41:13.275Z,7.27
2018-06-20T16:44:16.985Z,6.80
2018-06-20T16:47:20.851Z,7.10
2018-06-20T16:50:24.618Z,7.53
2018-06-20T16:53:28.247Z,6.90
2018-06-20T16:56:32.070Z,5.67
2018-06-20T16:59:35.820Z,5.60
2018-06-20T17:02:40.943Z,5.00
2018-06-20T17:05:44.532Z,6.20
2018-06-20T17:08:48.233Z,4.63
2018-06-20T17:11:56.961Z,4.27
2018-06-20T17:15:05.773Z,4.73
2018-06-20T17:20:19.863Z,4.50
2018-06-20T17:23:28.995Z,3.90
2018-06-20T17:26:32.801Z,4.33
2018-06-20T17:29:36.471Z,3.97
2018-06-20T17:32:40.118Z,4.00
2018-06-20T17:35:43.832Z,3.40
2018-06-20T17:38:47.574Z,3.60
2018-06-20T17:41:51.258Z,3.73
2018-06-20T17:44:55.012Z,3.00
2018-06-20T17:47:58.687Z,4.00
2018-06-20T17:51:02.459Z,3.07
2018-06-20T17:54:06.351Z,4.43
2018-06-20T17:57:10.036Z,3.53
2018-06-20T18:00:13.746Z,5.53
2018-06-20T18:03:17.422Z,3.50
2018-06-20T18:06:26.306Z,2.97
2018-06-20T18:09:35.393Z,3.10
2018-06-20T18:12:44.245Z,3.63
2018-06-20T18:17:56.418Z,8.20
2018-06-20T18:21:00.166Z,3.77
2018-06-20T18:24:03.964Z,3.57
2018-06-20T18:27:07.633Z,3.50
2018-06-20T18:30:11.363Z,3.43
2018-06-20T18:33:15.025Z,3.97
2018-06-20T18:36:18.817Z,3.87
2018-06-20T18:39:22.553Z,4.20
2018-06-20T18:42:26.253Z,4.40
2018-06-20T18:45:29.920Z,4.23
2018-06-20T18:48:33.664Z,7.30
2018-06-20T18:51:37.273Z,5.83
2018-06-20T18:54:41.143Z,5.00
2018-06-20T18:57:49.813Z,5.73
2018-06-20T19:00:58.567Z,4.60
2018-06-20T19:04:07.545Z,5.57
2018-06-20T19:07:16.528Z,5.07
2018-06-20T19:10:20.499Z,5.23
2018-06-20T19:13:24.247Z,5.20
2018-06-20T19:16:27.929Z,4.40
2018-06-20T19:19:31.908Z,6.27
2018-06-20T19:22:35.677Z,5.27
2018-06-20T19:25:39.504Z,5.00
2018-06-20T19:28:43.162Z,5.50
2018-06-20T19:31:47.031Z,8.13
2018-06-20T19:34:50.790Z,6.13
2018-06-20T19:37:54.454Z,8.60
2018-06-20T19:40:58.178Z,5.20
2018-06-20T19:44:06.962Z,6.20
2018-06-20T19:47:10.829Z,6.23
2018-06-20T19:50:14.538Z,4.97
2018-06-20T19:53:18.245Z,6.13
2018-06-20T19:56:21.984Z,4.70
2018-06-20T19:59:25.709Z,5.07
2018-06-20T20:02:29.509Z,7.33
2018-06-20T20:05:33.240Z,6.70
2018-06-20T20:08:37.056Z,5.50
2018-06-20T20:11:40.809Z,5.20
2018-06-20T20:14:44.450Z,6.23
2018-06-20T20:17:48.270Z,9.70
2018-06-20T20:20:51.993Z,7.90
2018-06-20T20:23:55.831Z,5.10
2018-06-20T20:26:59.676Z,7.33
2018-06-20T20:30:03.411Z,5.00
2018-06-20T20:33:07.093Z,6.37
2018-06-20T20:36:10.853Z,5.07
2018-06-20T20:39:14.549Z,5.33
2018-06-20T20:42:18.239Z,5.57
2018-06-20T20:45:21.902Z,5.10
2018-06-20T20:48:25.580Z,6.53
2018-06-20T20:51:29.269Z,6.70
2018-06-20T20:54:32.995Z,10.93
2018-06-20T20:57:36.742Z,5.80
2018-06-20T21:00:40.559Z,8.43
2018-06-20T21:03:44.459Z,4.70
2018-06-20T21:06:48.239Z,4.30
2018-06-20T21:09:52.074Z,5.50
2018-06-20T21:12:55.799Z,5.17
2018-06-20T21:15:59.437Z,6.73
2018-06-20T21:19:03.115Z,6.07
2018-06-20T21:22:07.029Z,9.13
2018-06-20T21:25:10.883Z,6.00
2018-06-20T21:28:14.540Z,5.97
2018-06-20T21:31:18.285Z,4.73
2018-06-20T21:34:22.033Z,7.07
2018-06-20T21:37:25.826Z,7.00
2018-06-20T21:40:29.473Z,5.43
2018-06-20T21:43:33.194Z,7.30
2018-06-20T21:46:36.889Z,6.03
2018-06-20T21:49:40.650Z,5.00
2018-06-20T21:52:44.361Z,8.37
2018-06-20T21:55:48.014Z,6.93
2018-06-20T21:58:51.729Z,6.40
2018-06-20T22:01:55.518Z,8.80
2018-06-20T22:08:25.656Z,7.90
2018-06-20T22:11:33.535Z,12.07
2018-06-20T22:14:37.210Z,11.73
2018-06-20T22:17:41.001Z,11.20
2018-06-20T22:20:44.694Z,9.57
2018-06-20T22:23:48.438Z,10.00
2018-06-20T22:26:52.048Z,11.07
2018-06-20T22:29:55.859Z,9.07
2018-06-20T22:32:59.776Z,7.07
2018-06-20T22:36:03.559Z,8.73
2018-06-20T22:39:09.055Z,7.67
2018-06-20T22:42:12.776Z,8.07
2018-06-20T22:45:16.548Z,7.30
2018-06-20T22:48:20.264Z,15.60
2018-06-20T22:51:23.924Z,8.10
2018-06-20T22:54:27.659Z,23.60
2018-06-20T22:57:31.259Z,6.77
2018-06-20T23:00:34.851Z,7.07
2018-06-20T23:03:38.488Z,7.13
2018-06-20T23:06:42.203Z,10.40
2018-06-20T23:09:45.825Z,8.90
2018-06-20T23:12:49.538Z,9.30
2018-06-20T23:15:53.121Z,9.13
2018-06-20T23:18:56.759Z,12.90
2018-06-20T23:22:00.630Z,7.90
2018-06-20T23:25:04.419Z,10.30
2018-06-20T23:28:08.084Z,11.60
2018-06-20T23:31:11.746Z,8.30
2018-06-20T23:34:15.316Z,9.50
2018-06-20T23:37:18.941Z,6.63
2018-06-20T23:40:22.558Z,9.13
2018-06-20T23:43:26.264Z,8.73
2018-06-20T23:46:29.867Z,11.77
2018-06-20T23:49:33.509Z,8.30
2018-06-20T23:52:37.231Z,8.00
2018-06-20T23:55:40.775Z,7.77
2018-06-20T23:58:44.440Z,9.40
